Time;durP1;ratioP1;P1;durP2;ratioP2;P2;SDS_P1;SDS_P2;PMS_P1;PMS_P2;Temp;Humidity;BMP_temperature;BMP_pressure;BME280_temperature;BME280_humidity;BME280_pressure;Samples;Min_cycle;Max_cycle;Signal;HPM_P1;HPM_P2
2021/05/06 00:08:09;;;;;;;9.68;2.03;;;;;;;16.09;56.05;99784.66;5093189;28;20062;-77
2021/05/06 00:14:26;;;;;;;8.00;1.83;;;;;;;16.03;56.30;99790.81;5093526;28;20458;-78
2021/05/06 00:34:41;;;;;;;10.35;1.98;;;;;;;16.06;55.66;99801.28;5094727;28;20047;-77
2021/05/06 00:54:52;;;;;;;10.02;2.13;;;;;;;15.83;56.95;99788.78;5068875;28;20090;-77
2021/05/06 01:01:20;;;;;;;10.40;2.42;;;;;;;15.80;57.67;99781.84;5095200;28;20059;-77
2021/05/06 01:14:09;;;;;;;11.80;3.55;;;;;;;15.59;57.33;99768.19;5094105;28;20055;-76
2021/05/06 01:17:13;;;;;;;11.10;2.33;;;;;;;15.58;57.65;99774.59;5093235;28;20051;-76
2021/05/06 01:20:17;;;;;;;14.45;2.88;;;;;;;15.56;57.47;99777.50;5093200;28;20173;-77
2021/05/06 01:23:25;;;;;;;9.27;2.10;;;;;;;15.55;57.52;99780.38;5093383;28;20058;-78
2021/05/06 01:27:09;;;;;;;9.68;2.10;;;;;;;15.52;57.61;99775.34;5093948;28;20051;-77
2021/05/06 01:30:18;;;;;;;10.95;2.20;;;;;;;15.51;57.56;99782.59;5094328;28;20051;-77
2021/05/06 01:33:37;;;;;;;10.02;2.75;;;;;;;15.48;57.57;99790.25;5094191;28;20070;-78
2021/05/06 01:36:47;;;;;;;11.13;2.50;;;;;;;15.48;57.39;99788.38;5094149;28;20055;-77
2021/05/06 01:40:28;;;;;;;11.55;2.60;;;;;;;15.42;57.49;99797.19;5092542;28;20410;-77
2021/05/06 01:50:17;;;;;;;11.07;3.15;;;;;;;15.41;57.18;99802.75;5093825;28;20104;-78
2021/05/06 01:59:53;;;;;;;8.88;2.00;;;;;;;15.41;57.56;99805.44;5092627;28;20042;-77
2021/05/06 02:02:59;;;;;;;9.73;2.70;;;;;;;15.43;56.86;99814.25;5097053;28;20502;-76
2021/05/06 02:06:09;;;;;;;13.45;2.47;;;;;;;15.50;57.01;99810.66;5097580;28;20047;-76
2021/05/06 02:09:13;;;;;;;9.75;2.80;;;;;;;15.50;57.06;99820.66;5097033;28;20055;-77
2021/05/06 02:12:18;;;;;;;10.95;2.30;;;;;;;15.46;57.10;99830.13;5096652;28;20486;-76
2021/05/06 02:15:49;;;;;;;10.30;2.10;;;;;;;15.45;56.63;99831.19;5097410;28;20055;-77
2021/05/06 02:18:52;;;;;;;9.25;1.95;;;;;;;15.45;57.13;99829.31;5097583;28;20059;-77
2021/05/06 02:21:57;;;;;;;6.55;2.20;;;;;;;15.46;57.10;99841.81;5097042;28;20051;-77
2021/05/06 02:25:01;;;;;;;11.20;3.28;;;;;;;15.47;57.81;99832.69;5096070;28;20071;-75
2021/05/06 02:28:06;;;;;;;16.33;3.08;;;;;;;15.42;58.17;99832.34;5096677;28;20051;-74
2021/05/06 02:31:10;;;;;;;10.48;2.42;;;;;;;15.37;58.65;99829.31;5096555;28;20067;-76
2021/05/06 02:34:14;;;;;;;9.95;2.90;;;;;;;15.34;58.69;99826.13;5097009;28;20056;-76
2021/05/06 02:37:18;;;;;;;11.10;2.95;;;;;;;15.25;59.17;99830.75;5096196;28;20051;-77
2021/05/06 02:40:23;;;;;;;10.30;2.58;;;;;;;15.19;59.86;99833.28;5096447;28;20126;-76
2021/05/06 02:43:27;;;;;;;10.65;2.10;;;;;;;15.10;60.92;99831.66;5096275;28;20051;-76
2021/05/06 02:46:31;;;;;;;9.10;2.60;;;;;;;15.00;61.66;99840.00;5096800;28;20066;-75
2021/05/06 02:49:36;;;;;;;8.82;2.50;;;;;;;14.97;61.91;99835.78;5096700;28;20157;-76
2021/05/06 02:56:26;;;;;;;12.23;2.53;;;;;;;14.75;62.58;99839.25;5074613;28;20047;-76
2021/05/06 03:02:56;;;;;;;8.18;2.15;;;;;;;14.75;62.05;99850.03;5058985;28;20617;-75
2021/05/06 03:06:00;;;;;;;10.75;2.42;;;;;;;14.79;62.69;99851.38;5073779;28;20542;-76
2021/05/06 03:13:14;;;;;;;11.98;2.38;;;;;;;14.78;63.06;99846.16;5073736;28;20395;-78
2021/05/06 03:25:48;;;;;;;9.57;2.17;;;;;;;14.52;64.21;99851.78;5073629;28;20043;-79
2021/05/06 03:29:00;;;;;;;10.82;3.00;;;;;;;14.48;62.97;99855.84;5073775;28;20143;-78
2021/05/06 03:41:43;;;;;;;9.43;2.75;;;;;;;14.47;63.41;99880.34;5090776;28;20514;-76
2021/05/06 03:45:02;;;;;;;9.02;2.72;;;;;;;14.41;63.17;99876.47;5093225;28;20043;-76
2021/05/06 04:18:35;;;;;;;13.50;3.00;;;;;;;14.60;64.11;99940.91;5086496;28;20055;-77
2021/05/06 04:38:30;;;;;;;9.63;3.08;;;;;;;14.30;65.63;99961.34;5090252;28;20047;-75
2021/05/06 04:41:57;;;;;;;15.80;3.55;;;;;;;14.31;65.42;99964.88;5093185;28;20043;-75
2021/05/06 04:55:11;;;;;;;13.32;3.42;;;;;;;14.39;63.91;99988.34;5091964;28;20043;-77
2021/05/06 05:05:05;;;;;;;46.30;32.08;;;;;;;14.57;63.83;99999.81;5088854;28;20047;-75
2021/05/06 05:08:14;;;;;;;54.95;40.42;;;;;;;14.66;63.43;100001.53;5091624;28;20063;-76
2021/05/06 05:18:03;;;;;;;12.27;3.30;;;;;;;14.82;63.20;100015.88;5093075;28;20047;-76
2021/05/06 05:24:45;;;;;;;9.90;2.95;;;;;;;15.33;61.32;100016.47;5088441;28;20502;-74
2021/05/06 05:27:49;;;;;;;13.48;3.60;;;;;;;15.79;61.22;100021.06;5092027;28;20051;-77
2021/05/06 05:30:54;;;;;;;12.30;2.80;;;;;;;16.26;59.39;100029.09;5092515;28;20047;-76
2021/05/06 05:34:14;;;;;;;12.10;3.40;;;;;;;16.83;57.34;100029.53;5092928;28;20511;-76
2021/05/06 05:37:21;;;;;;;11.45;3.10;;;;;;;17.06;56.46;100033.03;5092755;28;20055;-76
2021/05/06 05:57:13;;;;;;;14.48;3.38;;;;;;;16.36;57.50;100072.19;5077476;28;20494;-73
2021/05/06 06:00:18;;;;;;;13.32;3.13;;;;;;;16.41;58.24;100075.22;5085815;28;20039;-74
2021/05/06 06:03:22;;;;;;;12.82;3.22;;;;;;;16.53;58.76;100099.06;5077370;28;20407;-80
2021/05/06 06:06:27;;;;;;;15.98;3.63;;;;;;;16.41;59.32;100107.72;5078080;28;20051;-76
2021/05/06 06:09:32;;;;;;;10.93;3.17;;;;;;;16.41;59.81;100108.56;5096632;28;20504;-75
2021/05/06 06:12:36;;;;;;;11.63;4.18;;;;;;;16.45;59.86;100112.59;5095446;28;20051;-76
2021/05/06 06:15:51;;;;;;;11.30;3.38;;;;;;;16.52;59.93;100121.72;5073214;28;20454;-78
2021/05/06 06:18:58;;;;;;;14.60;3.28;;;;;;;16.77;59.30;100134.13;5076154;28;20051;-78
2021/05/06 06:22:05;;;;;;;10.38;2.60;;;;;;;16.91;58.31;100137.94;5090297;28;20094;-80
2021/05/06 06:25:11;;;;;;;11.88;2.95;;;;;;;16.96;57.81;100138.22;5096311;28;20039;-79
2021/05/06 06:28:15;;;;;;;28.75;3.97;;;;;;;16.52;61.85;100137.16;5096702;28;20047;-80
2021/05/06 06:34:25;;;;;;;20.38;4.13;;;;;;;15.59;67.04;100141.53;5096255;28;20055;-79
2021/05/06 06:37:29;;;;;;;21.67;4.30;;;;;;;15.21;68.95;100144.94;5096976;28;20051;-82
2021/05/06 06:40:34;;;;;;;18.67;4.35;;;;;;;15.14;69.13;100158.25;5096365;28;20039;-81
2021/05/06 06:43:45;;;;;;;19.17;4.75;;;;;;;14.88;70.50;100155.72;5096137;28;20375;-75
2021/05/06 06:47:00;;;;;;;11.68;4.43;;;;;;;14.79;70.71;100150.44;5093217;28;20063;-77
2021/05/06 06:50:05;;;;;;;17.40;4.22;;;;;;;14.91;69.25;100168.06;5093205;28;20039;-81
2021/05/06 06:53:12;;;;;;;17.17;4.38;;;;;;;15.43;67.56;100165.88;5095718;28;20055;-73
2021/05/06 06:56:17;;;;;;;16.48;6.10;;;;;;;15.34;66.50;100172.28;5096532;28;20129;-77
2021/05/06 06:59:22;;;;;;;18.73;6.47;;;;;;;15.06;68.54;100168.25;5093344;28;20146;-78
2021/05/06 07:02:26;;;;;;;14.82;6.30;;;;;;;14.96;69.21;100177.34;5096471;28;20055;-75
2021/05/06 07:05:31;;;;;;;10.35;5.90;;;;;;;15.23;69.59;100170.78;5074745;28;20044;-78
2021/05/06 07:08:38;;;;;;;15.55;6.50;;;;;;;14.96;70.42;100171.94;5075584;28;20052;-80
2021/05/06 07:11:42;;;;;;;14.32;6.30;;;;;;;15.18;70.17;100169.59;5075020;28;20051;-84
2021/05/06 07:14:47;;;;;;;13.18;6.57;;;;;;;15.36;69.95;100163.00;5074995;28;20498;-77
2021/05/06 07:17:51;;;;;;;15.75;6.78;;;;;;;15.63;68.52;100166.41;5075828;28;20052;-75
2021/05/06 07:20:56;;;;;;;16.17;6.40;;;;;;;15.75;67.95;100157.72;5094238;28;20051;-80
2021/05/06 07:24:01;;;;;;;15.60;6.20;;;;;;;15.99;67.76;100154.97;5096049;28;20109;-74
2021/05/06 07:27:05;;;;;;;16.85;6.68;;;;;;;16.27;66.88;100160.78;5095900;28;20043;-76
2021/05/06 07:30:10;;;;;;;12.50;6.13;;;;;;;16.29;67.47;100162.28;5095570;28;20395;-74
2021/05/06 07:33:15;;;;;;;16.65;6.63;;;;;;;16.64;66.60;100162.84;5094860;28;20055;-76
2021/05/06 07:36:20;;;;;;;15.32;6.90;;;;;;;16.62;66.00;100162.16;5094187;28;20055;-73
2021/05/06 07:39:24;;;;;;;12.90;6.05;;;;;;;16.70;66.19;100156.69;5095450;28;20059;-75
2021/05/06 07:42:29;;;;;;;11.75;5.80;;;;;;;16.86;65.39;100151.19;5094803;28;20047;-78
2021/05/06 07:45:34;;;;;;;12.82;5.93;;;;;;;17.74;63.36;100146.03;5095591;28;20043;-78
2021/05/06 07:48:38;;;;;;;15.35;6.30;;;;;;;18.18;61.76;100150.44;5095581;28;20043;-76
2021/05/06 07:51:42;;;;;;;15.00;6.00;;;;;;;18.64;61.36;100151.06;5095502;28;20063;-74
2021/05/06 07:54:48;;;;;;;10.55;5.75;;;;;;;18.73;60.95;100160.81;5095460;28;20059;-78
2021/05/06 07:58:01;;;;;;;13.95;6.18;;;;;;;18.82;60.19;100169.66;5094598;28;20063;-75
2021/05/06 08:01:05;;;;;;;13.70;6.57;;;;;;;19.69;57.89;100171.19;5094447;28;20047;-77
2021/05/06 08:04:09;;;;;;;14.18;6.45;;;;;;;20.96;54.74;100161.59;5095057;28;20055;-75
2021/05/06 08:07:14;;;;;;;11.27;6.05;;;;;;;23.13;47.39;100161.00;5094989;28;20054;-75
2021/05/06 08:10:19;;;;;;;14.18;6.40;;;;;;;23.98;45.72;100170.47;5095132;28;20055;-73
2021/05/06 08:13:26;;;;;;;14.60;5.60;;;;;;;24.70;44.69;100172.44;5095086;28;20059;-74
2021/05/06 08:16:30;;;;;;;15.95;6.47;;;;;;;24.64;44.27;100176.09;5095144;28;20063;-74
2021/05/06 08:19:35;;;;;;;11.07;5.93;;;;;;;25.58;41.94;100169.94;5095307;28;20113;-75
2021/05/06 08:22:40;;;;;;;16.38;5.40;;;;;;;26.68;39.00;100174.47;5095005;28;20166;-74
2021/05/06 08:25:45;;;;;;;10.48;5.07;;;;;;;27.08;38.08;100174.50;5094706;28;20048;-75
2021/05/06 08:28:49;;;;;;;11.75;5.40;;;;;;;26.51;39.37;100164.47;5094915;28;20071;-75
2021/05/06 08:31:55;;;;;;;14.95;6.53;;;;;;;25.06;42.20;100172.41;5094826;28;20470;-73
2021/05/06 08:35:00;;;;;;;11.75;5.78;;;;;;;23.29;45.74;100181.56;5094733;28;20047;-73
2021/05/06 08:38:04;;;;;;;16.73;5.90;;;;;;;22.83;47.60;100189.22;5094681;28;20047;-75
2021/05/06 08:41:09;;;;;;;13.23;5.53;;;;;;;22.44;48.80;100179.25;5093936;28;20063;-73
2021/05/06 08:44:17;;;;;;;14.63;6.22;;;;;;;22.41;49.51;100172.31;5094614;28;20055;-73
2021/05/06 08:47:22;;;;;;;14.07;6.10;;;;;;;22.77;47.01;100176.38;5094436;28;20098;-75
2021/05/06 08:50:28;;;;;;;14.27;6.68;;;;;;;22.14;50.26;100175.31;5094086;28;20044;-73
2021/05/06 08:53:33;;;;;;;14.10;6.55;;;;;;;22.12;50.70;100183.72;5093443;28;20075;-73
2021/05/06 08:56:37;;;;;;;19.67;6.60;;;;;;;21.44;51.96;100192.34;5094056;28;20047;-74
2021/05/06 08:59:42;;;;;;;12.20;5.40;;;;;;;21.30;51.22;100181.44;5094223;28;20051;-74
2021/05/06 09:02:47;;;;;;;18.40;6.68;;;;;;;21.50;51.83;100186.06;5094055;28;20051;-73
2021/05/06 09:06:12;;;;;;;14.15;6.35;;;;;;;21.36;51.64;100177.00;5094250;28;20486;-76
2021/05/06 09:09:17;;;;;;;13.70;6.57;;;;;;;21.52;52.68;100181.22;5094020;28;20043;-75
2021/05/06 09:12:38;;;;;;;11.38;5.43;;;;;;;21.56;51.97;100187.94;5094105;28;20059;-76
2021/05/06 09:15:49;;;;;;;12.95;5.43;;;;;;;21.47;52.08;100191.94;5093723;28;20059;-75
2021/05/06 09:18:53;;;;;;;11.35;6.78;;;;;;;21.47;51.92;100183.75;5093179;28;20047;-73
2021/05/06 09:21:57;;;;;;;13.93;5.82;;;;;;;21.19;53.02;100184.75;5093976;28;20055;-76
2021/05/06 09:25:23;;;;;;;10.10;5.32;;;;;;;21.03;52.95;100195.19;5093231;28;20051;-76
2021/05/06 09:28:29;;;;;;;12.38;5.93;;;;;;;20.95;53.40;100182.56;5093860;28;20490;-72
2021/05/06 09:31:39;;;;;;;16.65;5.30;;;;;;;20.72;53.87;100171.16;5093891;28;20051;-72
2021/05/06 09:34:44;;;;;;;18.98;5.10;;;;;;;20.77;53.15;100171.38;5093761;28;20051;-72
2021/05/06 09:37:49;;;;;;;12.20;5.15;;;;;;;20.79;53.07;100171.19;5093864;28;20051;-76
2021/05/06 09:40:57;;;;;;;11.27;5.05;;;;;;;20.83;52.75;100175.19;5093016;28;20047;-73
2021/05/06 09:44:12;;;;;;;13.95;5.45;;;;;;;21.09;52.39;100172.56;5093690;28;20055;-76
2021/05/06 09:47:17;;;;;;;13.43;5.38;;;;;;;20.77;54.11;100172.22;5093773;28;20047;-73
2021/05/06 09:50:25;;;;;;;11.20;5.13;;;;;;;20.91;52.89;100173.09;5092816;28;20055;-76
2021/05/06 09:53:32;;;;;;;11.32;4.75;;;;;;;20.76;53.97;100172.44;5093527;28;20055;-76
2021/05/06 09:56:38;;;;;;;9.27;4.85;;;;;;;20.84;53.78;100172.25;5092770;28;20387;-76
2021/05/06 09:59:42;;;;;;;11.10;4.63;;;;;;;20.87;53.39;100169.09;5093249;28;20047;-74
2021/05/06 10:02:47;;;;;;;13.85;4.97;;;;;;;20.69;54.21;100171.56;5093298;28;20047;-73
2021/05/06 10:05:52;;;;;;;14.77;5.28;;;;;;;20.56;53.95;100168.81;5093430;28;20379;-75
2021/05/06 10:09:02;;;;;;;11.60;5.00;;;;;;;20.69;53.91;100166.94;5093785;28;20039;-76
2021/05/06 10:12:07;;;;;;;11.85;4.47;;;;;;;20.70;53.51;100160.47;5093516;28;20051;-73
2021/05/06 10:15:14;;;;;;;12.77;5.10;;;;;;;20.73;54.32;100159.22;5092579;28;20063;-74
2021/05/06 10:18:19;;;;;;;13.60;5.05;;;;;;;20.63;54.08;100151.41;5093544;28;20055;-75
2021/05/06 10:21:24;;;;;;;14.07;5.00;;;;;;;20.91;54.25;100153.19;5094522;28;20501;-75
2021/05/06 10:24:29;;;;;;;13.23;5.82;;;;;;;20.89;53.84;100149.78;5097351;28;20047;-75
2021/05/06 10:27:35;;;;;;;13.02;4.60;;;;;;;20.97;52.88;100147.72;5097223;28;20071;-74
2021/05/06 10:30:41;;;;;;;11.00;4.45;;;;;;;21.28;51.88;100139.81;5096261;28;20051;-77
2021/05/06 10:33:45;;;;;;;11.88;4.32;;;;;;;21.31;52.11;100135.81;5096808;28;20059;-74
2021/05/06 10:36:50;;;;;;;11.30;4.63;;;;;;;21.26;51.99;100130.16;5097021;28;20071;-74
2021/05/06 10:39:54;;;;;;;11.45;4.25;;;;;;;21.24;52.92;100115.88;5096685;28;20134;-75
2021/05/06 10:43:32;;;;;;;14.68;4.38;;;;;;;21.21;52.41;100100.75;5096113;28;20055;-75
2021/05/06 10:47:02;;;;;;;11.82;4.25;;;;;;;21.32;53.66;100082.91;5014953;28;20433;-77
2021/05/06 10:50:11;;;;;;;13.10;4.85;;;;;;;20.89;53.65;100093.34;5003472;28;20049;-75
2021/05/06 10:53:27;;;;;;;13.35;4.90;;;;;;;20.34;55.89;100096.34;5014651;28;20057;-74
2021/05/06 10:56:39;;;;;;;14.63;5.43;;;;;;;20.57;54.28;100085.91;5014809;28;20053;-75
2021/05/06 10:59:45;;;;;;;8.27;4.20;;;;;;;20.74;54.66;100082.59;5003344;28;20149;-75
2021/05/06 11:02:51;;;;;;;10.77;4.40;;;;;;;20.67;53.92;100089.94;5014394;28;20061;-74
2021/05/06 11:05:59;;;;;;;11.18;4.30;;;;;;;21.01;53.98;100063.56;5014387;28;20053;-75
2021/05/06 11:09:38;;;;;;;16.77;5.05;;;;;;;21.23;53.72;100060.44;5014488;28;20153;-74
2021/05/06 11:12:55;;;;;;;13.70;5.10;;;;;;;21.32;53.55;100053.72;5010305;28;20552;-74
2021/05/06 11:16:19;;;;;;;9.75;4.00;;;;;;;21.36;53.52;100049.50;5014326;28;20057;-74
2021/05/06 11:19:55;;;;;;;14.93;4.38;;;;;;;21.46;52.90;100059.16;5002914;28;20049;-75
2021/05/06 11:23:01;;;;;;;10.60;4.45;;;;;;;21.29;52.63;100065.06;5034167;28;20044;-75
2021/05/06 11:26:14;;;;;;;19.75;5.13;;;;;;;21.17;52.42;100049.53;5033918;28;20148;-77
2021/05/06 11:29:28;;;;;;;15.13;4.40;;;;;;;21.28;53.01;100057.91;5033779;28;20044;-74
2021/05/06 11:32:32;;;;;;;14.32;4.43;;;;;;;21.22;53.20;100050.56;5033031;28;20473;-74
2021/05/06 11:35:58;;;;;;;13.95;4.95;;;;;;;21.29;52.93;100042.38;5022276;28;20140;-74
2021/05/06 11:39:03;;;;;;;9.90;4.10;;;;;;;21.06;52.83;100050.16;5033642;28;20171;-77
2021/05/06 11:42:09;;;;;;;13.18;4.47;;;;;;;21.11;53.32;100055.84;5033555;28;20136;-77
2021/05/06 11:45:24;;;;;;;11.65;4.47;;;;;;;20.86;53.76;100062.91;5033638;28;20427;-77
2021/05/06 11:48:38;;;;;;;11.48;3.85;;;;;;;20.90;52.68;100042.34;5033299;28;20160;-74
2021/05/06 11:51:45;;;;;;;13.38;3.10;;;;;;;21.14;42.95;100026.22;5033362;28;20164;-75
2021/05/06 11:54:49;;;;;;;9.60;2.72;;;;;;;21.45;39.72;100027.44;5033157;28;20060;-74
2021/05/06 11:57:54;;;;;;;11.10;2.90;;;;;;;21.65;39.11;100026.34;5060147;28;20043;-74
2021/05/06 12:00:58;;;;;;;12.07;2.85;;;;;;;21.76;39.07;100025.69;5095423;28;20055;-74
2021/05/06 12:04:03;;;;;;;9.82;2.30;;;;;;;21.72;38.34;100027.19;5095120;28;20072;-75
2021/05/06 12:07:20;;;;;;;8.95;2.30;;;;;;;21.75;37.14;100020.44;5095028;28;20482;-74
2021/05/06 12:10:26;;;;;;;9.27;2.25;;;;;;;21.80;37.32;100024.19;5095228;28;20047;-75
2021/05/06 12:13:34;;;;;;;13.40;2.45;;;;;;;21.87;37.00;100035.16;5095032;28;20051;-76
2021/05/06 12:16:38;;;;;;;10.07;2.10;;;;;;;21.77;35.13;100030.09;5095074;28;20051;-74
2021/05/06 12:19:48;;;;;;;8.05;2.00;;;;;;;21.63;34.82;100025.72;5095047;28;20439;-74
2021/05/06 12:22:52;;;;;;;11.77;2.22;;;;;;;21.72;35.83;100008.06;5094931;28;20055;-78
2021/05/06 12:25:56;;;;;;;8.80;2.28;;;;;;;21.84;35.52;99998.13;5095136;28;20051;-75
2021/05/06 12:29:01;;;;;;;5.97;1.80;;;;;;;21.79;34.47;100002.56;5094780;28;20047;-74
2021/05/06 12:32:05;;;;;;;6.97;2.00;;;;;;;21.73;35.23;99996.06;5094827;28;20386;-76
2021/05/06 12:35:10;;;;;;;10.60;2.25;;;;;;;21.89;35.91;99997.50;5094590;28;20143;-74
2021/05/06 12:38:16;;;;;;;11.65;2.72;;;;;;;21.99;35.28;99989.69;5094818;28;20055;-77
2021/05/06 12:41:20;;;;;;;12.77;2.15;;;;;;;22.01;35.10;100007.56;5093880;28;20514;-75
2021/05/06 12:44:39;;;;;;;8.63;1.75;;;;;;;21.95;34.30;99996.63;5094272;28;20047;-74
2021/05/06 12:47:48;;;;;;;7.70;2.42;;;;;;;21.93;34.36;100001.47;5093874;28;20055;-76
2021/05/06 12:51:02;;;;;;;8.23;1.80;;;;;;;21.88;34.26;99977.53;5094350;28;20478;-74
2021/05/06 12:54:11;;;;;;;7.03;2.00;;;;;;;21.72;34.67;99980.72;5094253;28;20055;-74
2021/05/06 12:57:16;;;;;;;9.70;1.85;;;;;;;21.78;34.92;99977.13;5094294;28;20047;-74
2021/05/06 13:00:23;;;;;;;10.35;1.92;;;;;;;21.74;34.58;99975.88;5094184;28;20063;-74
2021/05/06 13:03:31;;;;;;;10.68;1.75;;;;;;;21.91;34.80;99976.25;5094201;28;20056;-77
2021/05/06 13:06:36;;;;;;;11.07;2.20;;;;;;;22.10;35.08;99982.72;5094100;28;20062;-74
2021/05/06 13:09:43;;;;;;;11.82;1.92;;;;;;;22.26;35.44;99966.63;5094132;28;20046;-74
2021/05/06 13:12:47;;;;;;;9.18;2.85;;;;;;;22.43;34.67;99958.72;5093171;28;20043;-75
2021/05/06 13:15:53;;;;;;;6.97;1.77;;;;;;;22.41;34.60;99964.44;5094001;28;20403;-74
2021/05/06 13:18:59;;;;;;;11.50;2.45;;;;;;;22.44;34.12;99954.94;5093128;28;20043;-74
2021/05/06 13:22:11;;;;;;;8.02;1.80;;;;;;;22.30;35.51;99953.34;5093982;28;20490;-74
2021/05/06 13:25:15;;;;;;;9.13;2.40;;;;;;;22.42;34.00;99957.03;5093864;28;20066;-74
2021/05/06 13:28:32;;;;;;;10.05;2.13;;;;;;;22.55;34.29;99944.13;5094172;28;20054;-75
2021/05/06 13:31:39;;;;;;;9.02;2.15;;;;;;;22.76;34.71;99945.69;5094214;28;20071;-75
2021/05/06 13:34:54;;;;;;;7.80;2.10;;;;;;;23.02;34.23;99937.22;5093761;28;20059;-74
2021/05/06 13:37:58;;;;;;;6.90;1.90;;;;;;;23.06;33.80;99927.47;5093841;28;20047;-77
2021/05/06 13:41:03;;;;;;;7.88;2.40;;;;;;;23.16;33.57;99932.44;5093394;28;20052;-75
2021/05/06 13:44:08;;;;;;;7.70;1.90;;;;;;;23.25;33.66;99925.63;5093039;28;20486;-74
2021/05/06 13:47:13;;;;;;;11.38;2.58;;;;;;;23.26;32.28;99921.81;5093827;28;20149;-73
2021/05/06 13:50:18;;;;;;;7.25;2.17;;;;;;;23.31;31.95;99902.78;5092906;28;20391;-75
2021/05/06 13:53:22;;;;;;;6.88;1.80;;;;;;;23.43;31.00;99900.97;5093664;28;20067;-74
2021/05/06 13:56:26;;;;;;;4.25;1.60;;;;;;;23.59;31.30;99905.03;5094467;28;20383;-74
2021/05/06 13:59:30;;;;;;;6.85;2.13;;;;;;;23.82;30.96;99913.38;5097621;28;20055;-74
2021/05/06 14:02:35;;;;;;;8.93;2.20;;;;;;;23.75;33.77;99918.13;5097864;28;20506;-76
2021/05/06 14:05:40;;;;;;;9.18;1.90;;;;;;;23.58;33.98;99925.28;5097337;28;20047;-75
2021/05/06 14:08:44;;;;;;;8.38;2.08;;;;;;;23.55;33.29;99914.78;5097499;28;20066;-74
2021/05/06 14:11:50;;;;;;;6.50;2.20;;;;;;;23.78;32.83;99899.28;5097365;28;20379;-75
2021/05/06 14:14:55;;;;;;;9.18;2.40;;;;;;;23.93;33.12;99907.09;5096110;28;20051;-74
2021/05/06 14:17:59;;;;;;;11.45;2.50;;;;;;;23.99;33.44;99910.81;5096429;28;20043;-77
2021/05/06 14:21:08;;;;;;;8.98;2.33;;;;;;;23.59;32.24;99905.88;5097143;28;20043;-75
2021/05/06 14:24:14;;;;;;;7.55;1.90;;;;;;;22.91;33.66;99898.81;5097003;28;20051;-74
2021/05/06 14:27:19;;;;;;;14.20;2.63;;;;;;;22.99;33.96;99903.97;5097538;28;20046;-77
2021/05/06 14:30:24;;;;;;;29.90;26.50;;;;;;;23.03;34.12;99894.25;5097106;28;20055;-74
2021/05/06 14:33:28;;;;;;;32.65;23.90;;;;;;;22.93;31.49;99888.47;5096904;28;20055;-75
2021/05/06 14:36:33;;;;;;;6.82;2.90;;;;;;;22.99;31.75;99880.16;5097040;28;20055;-75
2021/05/06 14:39:37;;;;;;;5.43;1.63;;;;;;;23.01;30.85;99875.31;5096313;28;20054;-74
2021/05/06 14:42:42;;;;;;;7.57;1.33;;;;;;;22.96;31.12;99877.06;5095913;28;20051;-74
2021/05/06 14:45:46;;;;;;;8.05;2.20;;;;;;;22.93;31.55;99872.03;5096757;28;20067;-74
2021/05/06 14:48:51;;;;;;;10.38;2.45;;;;;;;22.96;32.38;99877.06;5096854;28;20043;-74
2021/05/06 14:51:55;;;;;;;10.77;1.60;;;;;;;22.90;31.92;99881.53;5095455;28;20067;-74
2021/05/06 14:55:00;;;;;;;7.10;1.90;;;;;;;23.04;32.45;99879.50;5096493;28;20426;-74
2021/05/06 14:58:05;;;;;;;11.65;1.90;;;;;;;23.06;32.93;99880.13;5096327;28;20055;-74
2021/05/06 15:01:09;;;;;;;6.38;1.70;;;;;;;23.19;32.87;99867.13;5095847;28;20055;-77
2021/05/06 15:04:14;;;;;;;6.30;1.65;;;;;;;23.16;32.68;99867.56;5096612;28;20055;-75
2021/05/06 15:07:18;;;;;;;7.80;2.08;;;;;;;22.73;34.08;99868.66;5096153;28;20051;-77
2021/05/06 15:10:23;;;;;;;8.55;2.00;;;;;;;22.00;35.53;99868.34;5096497;28;20050;-77
2021/05/06 15:13:27;;;;;;;12.68;2.05;;;;;;;21.56;36.20;99855.53;5096121;28;20047;-77
2021/05/06 15:16:32;;;;;;;9.48;2.25;;;;;;;21.38;36.63;99853.50;5096164;28;20043;-74
2021/05/06 15:19:37;;;;;;;10.23;2.28;;;;;;;21.35;37.55;99851.25;5096318;28;20390;-77
2021/05/06 15:22:41;;;;;;;9.25;1.98;;;;;;;21.28;37.49;99852.31;5096194;28;20051;-74
2021/05/06 15:25:46;;;;;;;11.15;2.13;;;;;;;21.04;37.56;99862.00;5095436;28;20063;-77
2021/05/06 15:28:51;;;;;;;6.68;2.00;;;;;;;20.99;37.44;99859.06;5096192;28;20055;-74
2021/05/06 15:31:56;;;;;;;8.57;1.92;;;;;;;21.06;37.56;99857.19;5095966;28;20059;-74
2021/05/06 15:35:01;;;;;;;8.52;1.88;;;;;;;21.09;37.96;99855.94;5095858;28;20055;-76
2021/05/06 15:38:06;;;;;;;11.98;1.92;;;;;;;21.09;38.77;99861.38;5096016;28;20071;-78
2021/05/06 15:41:11;;;;;;;8.45;2.05;;;;;;;21.21;39.27;99851.47;5095276;28;20055;-77
2021/05/06 15:44:16;;;;;;;8.32;1.90;;;;;;;21.38;38.83;99867.16;5095749;28;20154;-75
2021/05/06 15:47:20;;;;;;;13.85;2.13;;;;;;;21.21;38.15;99863.25;5095769;28;20047;-77
2021/05/06 15:50:24;;;;;;;8.27;1.70;;;;;;;21.39;38.34;99868.84;5095546;28;20513;-74
2021/05/06 15:53:30;;;;;;;5.88;1.73;;;;;;;21.30;38.65;99874.78;5092843;28;20039;-76
2021/05/06 15:56:35;;;;;;;7.60;1.85;;;;;;;21.42;38.60;99883.97;5082670;28;20059;-73
2021/05/06 15:59:40;;;;;;;6.07;1.50;;;;;;;21.10;38.98;99895.84;5086686;28;20035;-74
2021/05/06 16:02:47;;;;;;;5.55;1.48;;;;;;;21.19;39.31;99900.00;5092252;28;20055;-76
2021/05/06 16:05:54;;;;;;;10.30;1.92;;;;;;;21.09;39.20;99894.16;5075186;28;20040;-78
2021/05/06 16:08:58;;;;;;;11.48;2.55;;;;;;;21.03;38.86;99901.28;5074846;28;20360;-75
2021/05/06 16:12:03;;;;;;;6.38;1.60;;;;;;;20.86;39.32;99905.50;5074218;28;20047;-75
2021/05/06 16:15:08;;;;;;;8.70;1.60;;;;;;;20.91;39.44;99894.78;5086792;28;20161;-75
2021/05/06 16:18:12;;;;;;;6.78;1.48;;;;;;;20.90;39.68;99912.22;5074759;28;20051;-78
2021/05/06 16:21:18;;;;;;;6.82;2.05;;;;;;;20.83;39.59;99902.34;5084592;28;20137;-77
2021/05/06 16:24:23;;;;;;;9.38;1.90;;;;;;;20.74;40.92;99904.44;5078347;28;20506;-76
2021/05/06 16:27:28;;;;;;;10.50;1.92;;;;;;;20.63;41.31;99894.19;5072900;28;20051;-77
2021/05/06 16:30:35;;;;;;;5.20;1.48;;;;;;;20.70;41.42;99898.59;5074318;28;20047;-76
2021/05/06 16:33:44;;;;;;;8.07;1.90;;;;;;;20.73;41.66;99887.25;5073535;28;20059;-76
2021/05/06 16:37:00;;;;;;;8.45;1.90;;;;;;;20.53;42.03;99869.22;5082461;28;20058;-77
2021/05/06 16:40:17;;;;;;;5.07;1.55;;;;;;;20.31;41.98;99876.78;5085442;28;20528;-77
2021/05/06 16:46:35;;;;;;;10.10;2.10;;;;;;;20.10;43.60;99875.03;5081791;28;20047;-77
2021/05/06 16:49:40;;;;;;;11.45;2.08;;;;;;;19.95;43.86;99871.66;5072860;28;20056;-77
2021/05/06 16:52:48;;;;;;;10.13;2.17;;;;;;;19.83;44.67;99880.63;5088056;28;20395;-77
2021/05/06 16:55:53;;;;;;;9.65;2.10;;;;;;;19.63;45.04;99868.88;5084415;28;20502;-77
2021/05/06 16:58:58;;;;;;;9.75;1.80;;;;;;;19.48;45.85;99869.84;5101129;28;20051;-77
2021/05/06 17:02:03;;;;;;;11.10;2.38;;;;;;;19.47;45.87;99875.50;5091382;28;20070;-78
2021/05/06 17:05:12;;;;;;;8.75;2.05;;;;;;;19.37;46.42;99873.16;5102983;28;20055;-77
2021/05/06 17:08:16;;;;;;;8.60;2.40;;;;;;;19.30;46.88;99871.44;5073418;28;20531;-77
2021/05/06 17:11:21;;;;;;;8.57;2.55;;;;;;;19.24;47.12;99872.22;5089340;28;20505;-77
2021/05/06 17:14:25;;;;;;;11.25;2.33;;;;;;;19.26;47.36;99872.84;5089376;28;21588;-75
2021/05/06 17:17:30;;;;;;;8.75;2.10;;;;;;;19.23;47.80;99873.28;5096448;28;20043;-77
2021/05/06 17:20:34;;;;;;;8.70;2.20;;;;;;;19.20;47.79;99870.94;5088272;28;20047;-75
2021/05/06 17:23:39;;;;;;;9.02;1.65;;;;;;;19.19;48.33;99880.16;5091111;28;20051;-74
2021/05/06 17:26:43;;;;;;;11.43;2.30;;;;;;;19.18;48.92;99870.31;5091220;28;20066;-75
2021/05/06 17:29:49;;;;;;;10.48;2.10;;;;;;;19.13;48.83;99880.97;5090995;28;20047;-75
2021/05/06 17:32:54;;;;;;;12.05;2.28;;;;;;;19.06;49.83;99864.59;5090582;28;20395;-75
2021/05/06 17:35:59;;;;;;;10.25;1.67;;;;;;;18.98;50.18;99863.94;5091563;28;20047;-74
2021/05/06 17:39:04;;;;;;;5.53;1.80;;;;;;;18.93;50.46;99866.41;5091466;28;20063;-75
2021/05/06 17:42:08;;;;;;;7.57;1.90;;;;;;;18.92;50.76;99870.16;5060306;28;20550;-75
2021/05/06 17:45:14;;;;;;;7.82;2.15;;;;;;;18.80;51.18;99876.16;5050970;28;20048;-76
2021/05/06 17:48:19;;;;;;;9.13;2.00;;;;;;;18.76;51.65;99883.03;5045645;28;20392;-76